Time;durP1;ratioP1;P1;durP2;ratioP2;P2;SDS_P1;SDS_P2;PMS_P1;PMS_P2;Temp;Humidity;BMP_temperature;BMP_pressure;BME280_temperature;BME280_humidity;BME280_pressure;Samples;Min_cycle;Max_cycle;Signal;HPM_P1;HPM_P2
2022/12/02 00:01:41;;;;;;;104.32;46.35;;;5.10;99.90;;;;;;5055289;28;20032;-81
2022/12/02 00:04:22;;;;;;;81.93;38.55;;;5.10;99.90;;;;;;5059096;28;20047;-80
2022/12/02 00:06:51;;;;;;;96.22;45.58;;;5.10;99.90;;;;;;5070692;28;20497;-79
2022/12/02 00:09:33;;;;;;;98.85;45.90;;;5.10;99.90;;;;;;5086186;28;20047;-82
2022/12/02 00:12:30;;;;;;;89.30;42.40;;;5.00;99.90;;;;;;5083422;28;20032;-80
2022/12/02 00:15:00;;;;;;;90.57;43.45;;;5.00;99.90;;;;;;5069045;28;20073;-79
2022/12/02 00:17:27;;;;;;;87.07;43.83;;;5.00;99.90;;;;;;5067058;28;20044;-78
2022/12/02 00:19:53;;;;;;;81.05;40.20;;;4.90;99.90;;;;;;5074091;28;20043;-80
2022/12/02 00:22:20;;;;;;;78.82;38.33;;;4.90;99.90;;;;;;5080540;28;20042;-80
2022/12/02 00:24:46;;;;;;;76.78;35.97;;;4.90;99.90;;;;;;5078611;28;20042;-81
2022/12/02 00:27:13;;;;;;;68.80;35.13;;;4.90;99.90;;;;;;5077793;28;20059;-81
2022/12/02 00:29:39;;;;;;;73.32;36.67;;;4.90;99.90;;;;;;5087286;28;20028;-80
2022/12/02 00:32:06;;;;;;;73.88;35.95;;;4.90;99.90;;;;;;5080805;28;20059;-80
2022/12/02 00:34:32;;;;;;;69.82;36.10;;;4.90;99.90;;;;;;5088548;28;20401;-81
2022/12/02 00:36:58;;;;;;;81.82;39.47;;;4.90;99.90;;;;;;5062704;28;20040;-79
2022/12/02 00:39:25;;;;;;;78.40;36.95;;;4.90;99.90;;;;;;5081975;28;20031;-81
2022/12/02 00:41:51;;;;;;;71.97;37.67;;;4.90;99.90;;;;;;5071083;28;20497;-80
2022/12/02 00:47:03;;;;;;;68.13;34.15;;;4.90;99.90;;;;;;5088269;28;20494;-80
2022/12/02 00:49:29;;;;;;;67.72;35.50;;;4.90;99.90;;;;;;5086948;28;20400;-80
2022/12/02 00:51:56;;;;;;;83.28;39.67;;;4.90;99.90;;;;;;5071165;28;20445;-77
2022/12/02 00:54:22;;;;;;;85.85;42.50;;;4.90;99.90;;;;;;5070842;28;20043;-77
2022/12/02 00:56:50;;;;;;;107.30;54.78;;;4.90;99.90;;;;;;5071640;28;20036;-77
2022/12/02 00:59:16;;;;;;;83.53;40.03;;;4.80;99.90;;;;;;5092399;28;20058;-77
2022/12/02 01:01:43;;;;;;;74.78;37.42;;;4.80;99.90;;;;;;5104087;28;20048;-76
2022/12/02 01:04:10;;;;;;;74.45;36.88;;;4.80;99.90;;;;;;5091608;28;20038;-77
2022/12/02 01:06:37;;;;;;;79.50;37.83;;;4.80;99.90;;;;;;5071910;28;20043;-76
2022/12/02 01:09:03;;;;;;;70.03;36.47;;;4.80;99.90;;;;;;5087141;28;20046;-82
2022/12/02 01:11:30;;;;;;;76.18;37.40;;;4.80;99.90;;;;;;5094109;28;20043;-79
2022/12/02 01:13:56;;;;;;;63.75;32.00;;;4.80;99.90;;;;;;5094904;28;20470;-80
2022/12/02 01:16:22;;;;;;;81.93;41.65;;;4.80;99.90;;;;;;5077938;28;20541;-79
2022/12/02 01:18:49;;;;;;;77.45;39.15;;;4.80;99.90;;;;;;5060702;28;20055;-80
2022/12/02 01:21:15;;;;;;;83.57;43.03;;;4.80;99.90;;;;;;5088414;28;20059;-80
2022/12/02 01:23:41;;;;;;;85.38;41.95;;;4.80;99.90;;;;;;5076765;28;20410;-81
2022/12/02 01:26:10;;;;;;;78.35;40.83;;;4.70;99.90;;;;;;5101064;28;20043;-79
2022/12/02 01:28:36;;;;;;;82.55;41.30;;;4.70;99.90;;;;;;5066058;28;20072;-80
2022/12/02 01:31:02;;;;;;;81.25;40.92;;;4.70;99.90;;;;;;5061832;28;20044;-80
2022/12/02 01:33:30;;;;;;;71.88;35.70;;;4.70;99.90;;;;;;5099769;28;20043;-81
2022/12/02 01:35:56;;;;;;;59.78;30.92;;;4.70;99.90;;;;;;5087487;28;20030;-81
2022/12/02 01:38:22;;;;;;;63.85;32.22;;;4.70;99.90;;;;;;5066064;28;20490;-79
2022/12/02 01:40:49;;;;;;;69.78;35.58;;;4.70;99.90;;;;;;5088190;28;20073;-79
2022/12/02 01:43:15;;;;;;;78.93;38.45;;;4.70;99.90;;;;;;5080026;28;20036;-81
2022/12/02 01:45:42;;;;;;;54.17;28.60;;;4.70;99.90;;;;;;5086839;28;20039;-80
2022/12/02 01:48:09;;;;;;;75.43;39.20;;;4.70;99.90;;;;;;5070512;28;20040;-81
2022/12/02 01:50:35;;;;;;;72.78;36.30;;;4.70;99.90;;;;;;5099195;28;20039;-82
2022/12/02 01:53:02;;;;;;;92.25;46.38;;;4.70;99.90;;;;;;5099923;28;20046;-80
2022/12/02 01:55:31;;;;;;;67.53;35.90;;;4.70;99.90;;;;;;5075833;28;20496;-81
2022/12/02 01:57:58;;;;;;;71.15;36.30;;;4.60;99.90;;;;;;5093185;28;20046;-80
2022/12/02 02:00:25;;;;;;;76.20;38.35;;;4.60;99.90;;;;;;5094613;28;20040;-80
2022/12/02 02:02:51;;;;;;;70.97;37.35;;;4.60;99.90;;;;;;5091855;28;20031;-81
2022/12/02 02:05:29;;;;;;;75.35;38.47;;;4.70;99.90;;;;;;5087704;28;20028;-79
2022/12/02 02:08:01;;;;;;;79.03;40.10;;;4.60;99.90;;;;;;5081739;28;20051;-81
2022/12/02 02:10:28;;;;;;;64.63;32.90;;;4.60;99.90;;;;;;5077020;28;20035;-82
2022/12/02 02:12:57;;;;;;;74.75;37.15;;;4.60;99.90;;;;;;5083402;28;20106;-79
2022/12/02 02:15:23;;;;;;;76.85;37.25;;;4.60;99.90;;;;;;5102975;28;20027;-80
2022/12/02 02:17:50;;;;;;;64.88;32.30;;;4.60;99.90;;;;;;5083940;28;20039;-80
2022/12/02 02:20:20;;;;;;;84.05;40.20;;;4.60;99.90;;;;;;5076745;28;20410;-81
2022/12/02 02:23:05;;;;;;;74.25;35.83;;;4.60;99.90;;;;;;5076867;28;20036;-80
2022/12/02 02:25:38;;;;;;;75.95;38.50;;;4.50;99.90;;;;;;5074824;28;20028;-80
2022/12/02 02:28:06;;;;;;;61.45;30.60;;;4.50;99.90;;;;;;5093618;28;20411;-81
2022/12/02 02:30:34;;;;;;;69.97;37.00;;;4.50;99.90;;;;;;5091376;28;20046;-80
2022/12/02 02:33:03;;;;;;;70.82;33.90;;;4.50;99.90;;;;;;5094955;28;20031;-81
2022/12/02 02:35:32;;;;;;;62.50;30.70;;;4.50;99.90;;;;;;5058723;28;20878;-78
2022/12/02 02:37:58;;;;;;;66.55;30.25;;;4.50;99.90;;;;;;5093354;28;20102;-80
2022/12/02 02:40:26;;;;;;;65.28;29.67;;;4.50;99.90;;;;;;5097507;28;20059;-80
2022/12/02 02:42:59;;;;;;;78.38;37.67;;;4.50;99.90;;;;;;5073985;28;20020;-78
2022/12/02 02:45:28;;;;;;;65.03;31.33;;;4.50;99.90;;;;;;5085315;28;20042;-81
2022/12/02 02:47:57;;;;;;;72.28;34.63;;;4.40;99.90;;;;;;5073578;28;20054;-80
2022/12/02 02:50:25;;;;;;;74.53;33.42;;;4.40;99.90;;;;;;5096387;28;20032;-81
2022/12/02 02:52:53;;;;;;;64.25;29.75;;;4.30;99.90;;;;;;5079834;28;20047;-80
2022/12/02 02:55:22;;;;;;;66.82;32.88;;;4.30;99.90;;;;;;5077201;28;20055;-79
2022/12/02 02:57:49;;;;;;;74.00;34.38;;;4.40;99.90;;;;;;5065875;28;20039;-81
2022/12/02 03:00:18;;;;;;;61.17;29.40;;;4.30;99.90;;;;;;5097798;28;20154;-81
2022/12/02 03:02:48;;;;;;;74.22;34.50;;;4.30;99.90;;;;;;5093551;28;20474;-80
2022/12/02 03:05:16;;;;;;;64.35;29.88;;;4.30;99.90;;;;;;5076031;28;20032;-81
2022/12/02 03:07:43;;;;;;;75.32;34.70;;;4.30;99.90;;;;;;5083266;28;20032;-78
2022/12/02 03:10:10;;;;;;;63.83;28.83;;;4.30;99.90;;;;;;5073276;28;20532;-78
2022/12/02 03:12:37;;;;;;;56.00;27.92;;;4.30;99.90;;;;;;5088801;28;20036;-79
2022/12/02 03:15:05;;;;;;;55.88;26.85;;;4.20;99.90;;;;;;5088956;28;20039;-80
2022/12/02 03:17:31;;;;;;;65.53;28.25;;;4.30;99.90;;;;;;5052380;28;20040;-80
2022/12/02 03:19:57;;;;;;;61.97;27.77;;;4.30;99.90;;;;;;5077531;28;20051;-80
2022/12/02 03:22:24;;;;;;;52.88;23.48;;;4.30;99.90;;;;;;5097081;28;20036;-80
2022/12/02 03:24:51;;;;;;;57.60;26.13;;;4.30;99.90;;;;;;5075143;28;20036;-80
2022/12/02 03:27:17;;;;;;;68.85;31.23;;;4.30;99.90;;;;;;5088369;28;20043;-79
2022/12/02 03:29:44;;;;;;;68.90;30.95;;;4.30;99.90;;;;;;5073949;28;20474;-80
2022/12/02 03:32:11;;;;;;;57.63;26.45;;;4.30;99.90;;;;;;5077426;28;20043;-81
2022/12/02 03:34:40;;;;;;;59.40;27.87;;;4.30;99.90;;;;;;5069981;28;20737;-80
2022/12/02 03:37:08;;;;;;;67.05;32.28;;;4.30;99.90;;;;;;5072191;28;20048;-81
2022/12/02 03:39:35;;;;;;;62.72;29.50;;;4.30;99.90;;;;;;5067609;28;20525;-81
2022/12/02 03:42:02;;;;;;;60.55;25.30;;;4.30;99.90;;;;;;5096031;28;20036;-81
2022/12/02 03:44:28;;;;;;;60.25;28.67;;;4.30;99.90;;;;;;5091235;28;20042;-81
2022/12/02 03:46:55;;;;;;;62.70;29.23;;;4.30;99.90;;;;;;5073544;28;20043;-79
2022/12/02 03:49:22;;;;;;;54.72;25.23;;;4.30;99.90;;;;;;5059540;28;20035;-80
2022/12/02 03:51:48;;;;;;;68.95;31.10;;;4.30;99.90;;;;;;5072691;28;20032;-80
2022/12/02 03:54:15;;;;;;;58.97;27.90;;;4.30;99.90;;;;;;5094353;28;20031;-79
2022/12/02 03:56:42;;;;;;;70.97;33.65;;;4.30;99.90;;;;;;5097517;28;20040;-80
2022/12/02 03:59:10;;;;;;;69.13;31.05;;;4.30;99.90;;;;;;5092645;28;20036;-81
2022/12/02 04:01:36;;;;;;;61.35;30.52;;;4.30;99.90;;;;;;5095685;28;20382;-80
2022/12/02 04:04:02;;;;;;;78.28;37.42;;;4.30;99.90;;;;;;5083210;28;20066;-78
2022/12/02 04:06:29;;;;;;;68.03;30.90;;;4.30;99.90;;;;;;5088491;28;20036;-78
2022/12/02 04:08:55;;;;;;;58.22;27.83;;;4.30;99.90;;;;;;5082246;28;20390;-78
2022/12/02 04:11:22;;;;;;;62.83;28.27;;;4.30;99.90;;;;;;5088927;28;20035;-77
2022/12/02 04:13:48;;;;;;;54.83;24.98;;;4.30;99.90;;;;;;5084515;28;20058;-78
2022/12/02 04:16:14;;;;;;;50.40;23.25;;;4.20;99.90;;;;;;5089591;28;20044;-78
2022/12/02 04:18:41;;;;;;;57.55;25.17;;;4.30;99.90;;;;;;5093236;28;20043;-79
2022/12/02 04:21:07;;;;;;;51.63;24.35;;;4.20;99.90;;;;;;5056429;28;20036;-79
2022/12/02 04:23:34;;;;;;;50.42;24.58;;;4.20;99.90;;;;;;5086993;28;20365;-79
2022/12/02 04:26:00;;;;;;;49.65;22.80;;;4.20;99.90;;;;;;5080671;28;20044;-80
2022/12/02 04:28:27;;;;;;;58.25;26.70;;;4.20;99.90;;;;;;5074883;28;20050;-80
2022/12/02 04:30:53;;;;;;;47.88;23.30;;;4.20;99.90;;;;;;5078842;28;20044;-80
2022/12/02 04:33:19;;;;;;;44.63;21.33;;;4.20;99.90;;;;;;5092061;28;20050;-80
2022/12/02 04:35:46;;;;;;;46.85;22.52;;;4.10;99.90;;;;;;5084703;28;20028;-79
2022/12/02 04:38:12;;;;;;;48.33;23.35;;;4.10;99.90;;;;;;5067668;28;20422;-81
2022/12/02 04:40:39;;;;;;;49.87;24.27;;;4.10;99.90;;;;;;5093405;28;20040;-80
2022/12/02 04:43:06;;;;;;;42.90;19.52;;;4.20;99.90;;;;;;5087497;28;20035;-80
2022/12/02 04:45:32;;;;;;;39.60;19.40;;;4.10;99.90;;;;;;5072679;28;20051;-79
2022/12/02 04:47:59;;;;;;;45.00;21.98;;;4.10;99.90;;;;;;5052222;28;20036;-80
2022/12/02 04:50:25;;;;;;;45.05;23.05;;;4.10;99.90;;;;;;5070321;28;20039;-80
2022/12/02 04:52:52;;;;;;;48.47;22.90;;;4.10;99.90;;;;;;5071147;28;20042;-79
2022/12/02 04:55:18;;;;;;;45.13;21.73;;;4.10;99.90;;;;;;5092980;28;20042;-80
2022/12/02 04:57:45;;;;;;;33.88;16.42;;;4.10;99.90;;;;;;5080235;28;20035;-80
2022/12/02 05:00:12;;;;;;;39.00;18.23;;;4.10;99.90;;;;;;5056255;28;20476;-81
2022/12/02 05:02:38;;;;;;;34.80;16.23;;;4.10;99.90;;;;;;5078882;28;20470;-80
2022/12/02 05:05:05;;;;;;;40.72;19.42;;;4.10;99.90;;;;;;5078052;28;20496;-80
2022/12/02 05:07:31;;;;;;;40.70;18.98;;;4.10;99.90;;;;;;5079855;28;20043;-78
2022/12/02 05:09:57;;;;;;;37.33;19.00;;;4.10;99.90;;;;;;5085673;28;20071;-81
2022/12/02 05:12:24;;;;;;;37.70;19.08;;;4.10;99.90;;;;;;5080434;28;20032;-81
2022/12/02 05:14:51;;;;;;;40.30;19.52;;;4.10;99.90;;;;;;5071541;28;20040;-80
2022/12/02 05:17:18;;;;;;;41.28;20.65;;;4.10;99.90;;;;;;5062075;28;20046;-80
2022/12/02 05:19:44;;;;;;;37.47;18.45;;;4.10;99.90;;;;;;5066383;28;20043;-80
2022/12/02 05:22:11;;;;;;;39.30;20.00;;;4.00;99.90;;;;;;5081937;28;20055;-80
2022/12/02 05:24:37;;;;;;;46.58;23.98;;;4.10;99.90;;;;;;5087380;28;20043;-82
2022/12/02 05:27:04;;;;;;;38.55;19.98;;;4.10;99.90;;;;;;5068288;28;20056;-82
2022/12/02 05:29:30;;;;;;;40.38;21.65;;;4.00;99.90;;;;;;5065542;28;20028;-80
2022/12/02 05:31:56;;;;;;;38.10;18.83;;;4.00;99.90;;;;;;5088045;28;20031;-80
2022/12/02 05:34:23;;;;;;;36.83;19.83;;;4.00;99.90;;;;;;5069321;28;20032;-80
2022/12/02 05:36:49;;;;;;;41.80;21.13;;;4.00;99.90;;;;;;5072817;28;20047;-80
2022/12/02 05:39:15;;;;;;;42.27;19.90;;;4.00;99.90;;;;;;5065188;28;20047;-79
2022/12/02 05:41:43;;;;;;;42.60;20.50;;;4.00;99.90;;;;;;5058044;28;20059;-78
2022/12/02 05:44:21;;;;;;;37.37;18.97;;;3.90;99.90;;;;;;5083360;28;20398;-81
2022/12/02 05:46:48;;;;;;;43.25;22.02;;;3.90;99.90;;;;;;5099734;28;20473;-81
2022/12/02 05:49:20;;;;;;;47.70;22.30;;;4.00;99.90;;;;;;5064594;28;20032;-81
2022/12/02 05:51:54;;;;;;;55.17;28.30;;;3.90;99.90;;;;;;5080694;28;20032;-81
2022/12/02 05:54:20;;;;;;;56.88;28.77;;;3.90;99.90;;;;;;5064292;28;20036;-81
2022/12/02 05:56:47;;;;;;;46.50;23.03;;;3.90;99.90;;;;;;5099450;28;20041;-81
2022/12/02 05:59:16;;;;;;;47.23;24.03;;;3.80;99.90;;;;;;5087644;28;20016;-82
2022/12/02 06:01:47;;;;;;;41.07;20.30;;;3.80;99.90;;;;;;5089463;28;20035;-80
2022/12/02 06:04:31;;;;;;;50.47;24.17;;;3.80;99.90;;;;;;5056244;28;20040;-80
2022/12/02 06:07:09;;;;;;;44.33;22.37;;;3.80;99.90;;;;;;5076735;28;20135;-79
2022/12/02 06:09:35;;;;;;;48.22;25.55;;;3.80;99.90;;;;;;5050110;28;20044;-81
2022/12/02 06:12:16;;;;;;;41.40;21.13;;;3.80;99.90;;;;;;5069616;28;20040;-81
2022/12/02 06:15:00;;;;;;;51.42;25.20;;;3.80;99.90;;;;;;5088006;28;20039;-81
2022/12/02 06:17:27;;;;;;;43.97;23.27;;;3.80;99.90;;;;;;5089038;28;20028;-79
2022/12/02 06:19:55;;;;;;;45.65;25.23;;;3.80;99.90;;;;;;5087689;28;20051;-81
2022/12/02 06:22:29;;;;;;;38.05;19.00;;;3.80;99.90;;;;;;5071227;28;20043;-81
2022/12/02 06:24:59;;;;;;;46.90;24.77;;;3.80;99.90;;;;;;5086607;28;20395;-81
2022/12/02 06:27:27;;;;;;;48.42;25.98;;;3.80;99.90;;;;;;5056604;28;20542;-82
2022/12/02 06:29:57;;;;;;;52.15;25.38;;;3.70;99.90;;;;;;5084124;28;20040;-82
2022/12/02 06:32:35;;;;;;;44.87;21.90;;;3.70;99.90;;;;;;5094870;28;20397;-81
2022/12/02 06:35:15;;;;;;;59.35;28.58;;;3.70;99.90;;;;;;5082908;28;20374;-83
2022/12/02 06:37:42;;;;;;;44.88;22.23;;;3.70;99.90;;;;;;5098424;28;20048;-79
2022/12/02 06:40:33;;;;;;;48.00;25.50;;;3.70;99.90;;;;;;5098642;28;20596;-80
2022/12/02 06:43:15;;;;;;;51.17;24.00;;;3.70;99.90;;;;;;5070610;28;20509;-83
2022/12/02 06:45:44;;;;;;;51.33;25.30;;;3.60;99.90;;;;;;5073409;28;20035;-81
2022/12/02 06:48:27;;;;;;;44.90;23.27;;;3.70;99.90;;;;;;5085530;28;20036;-83
2022/12/02 06:50:56;;;;;;;47.15;23.23;;;3.60;99.90;;;;;;5095139;28;20031;-82
2022/12/02 06:53:33;;;;;;;43.35;22.27;;;3.70;99.90;;;;;;5092705;28;20040;-82
2022/12/02 06:56:21;;;;;;;58.85;29.98;;;3.70;99.90;;;;;;5057041;28;20474;-80
2022/12/02 06:58:54;;;;;;;46.97;23.90;;;3.70;99.90;;;;;;5089868;28;20027;-81
2022/12/02 07:01:23;;;;;;;47.87;24.80;;;3.70;99.90;;;;;;5102790;28;20035;-80
2022/12/02 07:04:26;;;;;;;51.17;24.03;;;3.70;99.90;;;;;;5088428;28;20545;-83
2022/12/02 07:06:58;;;;;;;42.38;23.45;;;3.70;99.90;;;;;;5068992;28;20607;-80
2022/12/02 07:09:39;;;;;;;61.13;30.33;;;3.70;99.90;;;;;;5082950;28;20024;-81
2022/12/02 07:12:19;;;;;;;57.07;26.97;;;3.70;99.90;;;;;;5100299;28;20035;-86
2022/12/02 07:14:47;;;;;;;54.43;26.50;;;3.70;99.90;;;;;;5086623;28;20521;-81
2022/12/02 07:17:28;;;;;;;57.00;28.30;;;3.60;99.90;;;;;;5070536;28;20043;-79
2022/12/02 07:20:17;;;;;;;47.75;23.60;;;3.60;99.90;;;;;;5080199;28;20040;-82
2022/12/02 07:22:54;;;;;;;69.03;32.13;;;3.60;99.90;;;;;;5097589;28;20040;-81
2022/12/02 07:25:44;;;;;;;55.65;29.13;;;3.60;99.90;;;;;;5073348;28;20067;-82
2022/12/02 07:28:38;;;;;;;58.77;29.80;;;3.60;99.90;;;;;;5073988;28;20043;-81
2022/12/02 07:31:25;;;;;;;54.80;25.40;;;3.60;99.90;;;;;;5081002;28;20036;-81
2022/12/02 07:33:52;;;;;;;50.83;25.33;;;3.60;99.90;;;;;;5080971;28;20603;-81
2022/12/02 07:36:19;;;;;;;49.67;23.70;;;3.60;99.90;;;;;;5064645;28;20036;-82
2022/12/02 07:38:46;;;;;;;49.80;23.73;;;3.60;99.90;;;;;;5051774;28;20027;-82
2022/12/02 07:41:15;;;;;;;48.95;25.13;;;3.50;99.90;;;;;;5092745;28;20462;-83
2022/12/02 07:43:41;;;;;;;50.17;24.45;;;3.50;99.90;;;;;;5079750;28;20058;-81
2022/12/02 07:46:07;;;;;;;69.30;32.45;;;3.50;99.90;;;;;;5087263;28;20051;-80
2022/12/02 07:48:34;;;;;;;49.42;24.02;;;3.50;99.90;;;;;;5084616;28;20032;-83
2022/12/02 07:51:00;;;;;;;49.73;23.23;;;3.60;99.90;;;;;;5096061;28;20032;-82
2022/12/02 07:53:26;;;;;;;73.03;32.63;;;3.60;99.90;;;;;;5077444;28;20040;-81
2022/12/02 07:55:53;;;;;;;59.03;25.63;;;3.50;99.90;;;;;;5097233;28;20058;-82
2022/12/02 07:58:19;;;;;;;59.77;26.97;;;3.50;99.90;;;;;;5054078;28;20036;-83
2022/12/02 08:00:45;;;;;;;63.83;28.35;;;3.50;99.90;;;;;;5089221;28;20027;-82
2022/12/02 08:03:12;;;;;;;67.35;30.13;;;3.50;99.90;;;;;;5080071;28;20040;-82
2022/12/02 08:05:38;;;;;;;57.38;25.73;;;3.40;99.90;;;;;;5093614;28;20065;-82
2022/12/02 08:08:04;;;;;;;60.55;26.60;;;3.50;99.90;;;;;;5083490;28;20043;-82
2022/12/02 08:10:31;;;;;;;65.33;29.57;;;3.50;99.90;;;;;;5093568;28;20032;-82
2022/12/02 08:12:57;;;;;;;56.22;25.67;;;3.50;99.90;;;;;;5074796;28;20036;-82
2022/12/02 08:15:23;;;;;;;49.97;23.08;;;3.50;99.90;;;;;;5101994;28;20024;-80
2022/12/02 08:17:49;;;;;;;71.00;30.03;;;3.50;99.90;;;;;;5072138;28;20837;-81
2022/12/02 08:20:16;;;;;;;63.40;27.83;;;3.50;99.90;;;;;;5095265;28;20391;-81
2022/12/02 08:22:42;;;;;;;50.90;24.65;;;3.50;99.90;;;;;;5084900;28;20044;-81
2022/12/02 08:25:09;;;;;;;60.33;25.58;;;3.50;99.90;;;;;;5072538;28;20444;-82
2022/12/02 08:27:39;;;;;;;71.20;32.03;;;3.50;99.90;;;;;;5057707;28;20375;-79
2022/12/02 08:30:09;;;;;;;63.03;29.10;;;3.50;99.90;;;;;;5092586;28;20402;-82
2022/12/02 08:32:35;;;;;;;61.67;26.83;;;3.50;99.90;;;;;;5096245;28;20587;-82
2022/12/02 08:35:02;;;;;;;74.43;32.00;;;3.50;99.90;;;;;;5092919;28;20314;-82
2022/12/02 08:37:28;;;;;;;77.27;32.57;;;3.50;99.90;;;;;;5093495;28;20039;-80
2022/12/02 08:39:55;;;;;;;71.27;31.30;;;3.50;99.90;;;;;;5086590;28;20034;-81
2022/12/02 08:42:21;;;;;;;70.33;30.83;;;3.50;99.90;;;;;;5096903;28;20040;-80
2022/12/02 08:44:47;;;;;;;63.60;27.67;;;3.50;99.90;;;;;;5098450;28;20088;-81
2022/12/02 08:47:14;;;;;;;65.70;28.90;;;3.50;99.90;;;;;;5076954;28;20035;-82
2022/12/02 08:49:43;;;;;;;64.05;28.10;;;3.50;99.90;;;;;;5091167;28;20494;-82
2022/12/02 08:52:09;;;;;;;76.00;30.30;;;3.50;99.90;;;;;;5089118;28;20028;-82
2022/12/02 08:54:35;;;;;;;80.23;30.67;;;3.50;99.90;;;;;;5071819;28;20028;-80
2022/12/02 08:57:02;;;;;;;62.80;27.33;;;3.50;99.90;;;;;;5090580;28;20505;-82
2022/12/02 08:59:28;;;;;;;68.60;29.38;;;3.60;99.90;;;;;;5053574;28;20039;-83
2022/12/02 09:01:55;;;;;;;63.23;26.67;;;3.60;99.90;;;;;;5087066;28;20490;-83
2022/12/02 09:04:21;;;;;;;60.03;25.60;;;3.60;99.90;;;;;;5081009;28;20050;-82
2022/12/02 09:06:47;;;;;;;72.47;32.00;;;3.60;99.90;;;;;;5069355;28;20039;-82
2022/12/02 09:09:14;;;;;;;64.35;29.02;;;3.70;99.90;;;;;;5079849;28;20043;-83
2022/12/02 09:11:40;;;;;;;66.30;29.23;;;3.60;99.90;;;;;;5092175;28;20039;-83
2022/12/02 09:14:06;;;;;;;62.75;28.58;;;3.70;99.90;;;;;;5099259;28;20028;-80
2022/12/02 09:16:36;;;;;;;74.80;31.33;;;3.70;99.90;;;;;;5091874;28;20063;-82
2022/12/02 09:19:02;;;;;;;62.67;27.43;;;3.70;99.90;;;;;;5049515;28;20039;-82
2022/12/02 09:21:29;;;;;;;63.50;27.60;;;3.70;99.90;;;;;;5062585;28;20497;-81
2022/12/02 09:23:55;;;;;;;64.60;26.03;;;3.70;99.90;;;;;;5071631;28;20028;-84
2022/12/02 09:26:21;;;;;;;58.70;26.83;;;3.70;99.90;;;;;;5082163;28;20036;-82
2022/12/02 09:28:48;;;;;;;56.38;26.20;;;3.80;99.90;;;;;;5078960;28;20039;-82
2022/12/02 09:31:14;;;;;;;59.65;26.35;;;3.80;99.90;;;;;;5095246;28;20036;-82
2022/12/02 09:33:41;;;;;;;53.43;24.97;;;3.90;99.90;;;;;;5075288;28;20032;-83
2022/12/02 09:36:07;;;;;;;53.55;26.33;;;3.90;99.90;;;;;;5074838;28;20417;-83
2022/12/02 09:38:33;;;;;;;58.15;24.63;;;3.90;99.90;;;;;;5088959;28;20036;-83
2022/12/02 09:41:00;;;;;;;57.78;25.13;;;3.90;99.90;;;;;;5085711;28;20035;-83
2022/12/02 09:43:28;;;;;;;60.30;27.10;;;4.00;99.90;;;;;;5095758;28;20042;-83
2022/12/02 09:45:54;;;;;;;53.70;25.75;;;4.00;99.90;;;;;;5085136;28;20049;-80
2022/12/02 09:48:21;;;;;;;64.00;29.80;;;4.00;99.90;;;;;;5059202;28;20042;-82
2022/12/02 09:50:48;;;;;;;64.20;29.20;;;4.00;99.90;;;;;;5078197;28;20051;-79
2022/12/02 09:53:16;;;;;;;56.65;27.30;;;4.00;99.90;;;;;;5096987;28;20036;-81
2022/12/02 09:55:42;;;;;;;56.58;25.67;;;4.00;99.90;;;;;;5061795;28;20031;-81
2022/12/02 09:58:17;;;;;;;57.27;27.70;;;4.00;99.90;;;;;;5079066;28;20040;-83
2022/12/02 10:00:45;;;;;;;63.83;29.13;;;4.10;99.90;;;;;;5065185;28;20035;-83
2022/12/02 10:03:15;;;;;;;68.15;31.20;;;4.10;99.90;;;;;;5071114;28;20050;-82
2022/12/02 10:05:44;;;;;;;65.80;28.95;;;4.10;99.90;;;;;;5088696;28;20047;-79
2022/12/02 10:08:16;;;;;;;56.38;25.98;;;4.10;99.90;;;;;;5057617;28;20055;-81
2022/12/02 10:10:44;;;;;;;57.58;27.83;;;4.10;99.90;;;;;;5077477;28;20482;-81
2022/12/02 10:13:15;;;;;;;51.87;23.97;;;4.20;99.90;;;;;;5076715;28;20032;-79
2022/12/02 10:15:43;;;;;;;60.07;26.33;;;4.20;99.90;;;;;;5083750;28;20032;-80
2022/12/02 10:18:18;;;;;;;52.38;23.90;;;4.20;99.90;;;;;;5081443;28;20643;-80
2022/12/02 10:20:45;;;;;;;60.75;27.00;;;4.30;99.90;;;;;;5074504;28;20066;-81
2022/12/02 10:23:17;;;;;;;57.30;26.17;;;4.30;99.90;;;;;;5071867;28;20043;-81
2022/12/02 10:25:51;;;;;;;59.03;25.67;;;4.30;99.90;;;;;;5058284;28;20347;-80
2022/12/02 10:28:27;;;;;;;67.97;28.13;;;4.30;99.90;;;;;;5047746;28;20032;-79
2022/12/02 10:31:04;;;;;;;65.20;29.00;;;4.20;99.90;;;;;;5075692;28;20035;-80
2022/12/02 10:33:33;;;;;;;62.00;28.50;;;4.20;99.90;;;;;;5091008;28;20393;-80
2022/12/02 10:36:00;;;;;;;63.58;29.00;;;4.20;99.90;;;;;;5092934;28;20039;-82
2022/12/02 10:38:44;;;;;;;59.38;24.40;;;4.20;99.90;;;;;;5079415;28;20040;-80
2022/12/02 10:41:13;;;;;;;59.90;25.67;;;4.20;99.90;;;;;;5079674;28;20028;-81
2022/12/02 10:43:59;;;;;;;55.13;24.02;;;4.10;99.90;;;;;;5070768;28;20039;-80
2022/12/02 10:46:25;;;;;;;50.72;23.20;;;4.10;99.90;;;;;;5073126;28;20032;-81
2022/12/02 10:48:51;;;;;;;47.70;22.55;;;4.10;99.90;;;;;;5074568;28;20039;-80
2022/12/02 10:51:20;;;;;;;54.92;23.23;;;4.00;99.90;;;;;;5094634;28;20032;-79
2022/12/02 10:53:55;;;;;;;53.17;23.45;;;4.00;99.90;;;;;;5088712;28;20478;-80
2022/12/02 10:56:22;;;;;;;46.53;19.30;;;4.00;99.90;;;;;;5087191;28;20031;-81
2022/12/02 10:58:50;;;;;;;54.55;24.60;;;4.00;99.90;;;;;;5090338;28;20034;-79
2022/12/02 11:01:19;;;;;;;49.40;21.23;;;4.00;99.90;;;;;;5090418;28;20047;-79
2022/12/02 11:03:46;;;;;;;51.13;22.17;;;4.00;99.90;;;;;;5071577;28;20390;-81
2022/12/02 11:06:19;;;;;;;45.38;21.08;;;3.90;99.90;;;;;;5080628;28;20051;-79
2022/12/02 11:08:48;;;;;;;56.15;23.50;;;3.90;99.90;;;;;;5066316;28;20040;-79
2022/12/02 11:11:37;;;;;;;51.05;20.85;;;3.90;99.90;;;;;;5079822;28;20036;-79
2022/12/02 11:14:11;;;;;;;56.63;25.48;;;3.90;99.90;;;;;;5086852;28;20044;-83
2022/12/02 11:16:37;;;;;;;58.97;25.00;;;3.90;99.90;;;;;;5083107;28;20493;-78
2022/12/02 11:19:21;;;;;;;57.88;23.67;;;3.90;99.90;;;;;;5063137;28;20482;-81
2022/12/02 11:21:48;;;;;;;57.03;24.02;;;3.90;99.90;;;;;;5089902;28;20383;-79
2022/12/02 11:24:27;;;;;;;52.92;21.95;;;3.90;99.90;;;;;;5063525;28;20046;-79
2022/12/02 11:26:59;;;;;;;46.00;20.67;;;3.90;99.90;;;;;;5093755;28;20031;-81
2022/12/02 11:29:26;;;;;;;51.95;21.90;;;3.90;99.90;;;;;;5087121;28;20028;-77
2022/12/02 11:32:38;;;;;;;49.45;21.77;;;3.90;99.90;;;;;;5089693;28;20039;-81
2022/12/02 11:35:13;;;;;;;57.47;22.35;;;3.90;99.90;;;;;;5082063;28;20040;-81
2022/12/02 11:37:42;;;;;;;47.05;18.48;;;4.00;99.90;;;;;;5089502;28;20043;-79
2022/12/02 11:40:12;;;;;;;57.45;22.80;;;4.00;99.90;;;;;;5083644;28;20052;-83
2022/12/02 11:42:41;;;;;;;50.13;21.83;;;4.00;99.90;;;;;;5094203;28;20039;-80
2022/12/02 11:45:17;;;;;;;63.60;25.33;;;4.00;99.90;;;;;;5094315;28;20429;-84
2022/12/02 11:47:58;;;;;;;95.57;40.28;;;4.00;99.90;;;;;;5071207;28;20043;-80
2022/12/02 11:50:28;;;;;;;61.50;25.42;;;4.00;99.90;;;;;;5068786;28;20044;-80
2022/12/02 11:53:21;;;;;;;68.75;28.75;;;4.00;99.90;;;;;;5062419;28;20036;-80
2022/12/02 11:55:51;;;;;;;59.53;23.83;;;4.00;99.90;;;;;;5096467;28;20059;-79
2022/12/02 11:58:24;;;;;;;52.97;21.00;;;4.10;99.90;;;;;;5077022;28;20035;-80
2022/12/02 12:01:11;;;;;;;58.88;22.58;;;4.20;99.90;;;;;;5080461;28;20031;-80
2022/12/02 12:03:41;;;;;;;57.13;23.77;;;4.20;99.90;;;;;;5099797;28;20525;-78
2022/12/02 12:06:09;;;;;;;44.75;18.35;;;4.20;99.90;;;;;;5071260;28;20397;-80
2022/12/02 12:08:37;;;;;;;56.45;22.52;;;4.30;99.90;;;;;;5085453;28;20028;-80
2022/12/02 12:11:34;;;;;;;54.15;22.00;;;4.40;99.90;;;;;;5068483;28;20043;-78
2022/12/02 12:14:05;;;;;;;50.13;22.00;;;4.40;99.90;;;;;;5090098;28;20040;-79
2022/12/02 12:16:37;;;;;;;54.27;22.43;;;4.40;99.90;;;;;;5099544;28;20032;-78
2022/12/02 12:19:16;;;;;;;48.60;20.23;;;4.40;99.90;;;;;;5082095;28;20051;-80
2022/12/02 12:21:49;;;;;;;43.30;19.45;;;4.40;99.90;;;;;;5081656;28;20032;-80
2022/12/02 12:24:19;;;;;;;49.10;19.90;;;4.50;99.90;;;;;;5088122;28;20032;-79
2022/12/02 12:26:55;;;;;;;47.08;18.98;;;4.50;99.90;;;;;;5074674;28;20710;-79
2022/12/02 12:29:24;;;;;;;44.70;19.42;;;4.60;99.90;;;;;;5072246;28;20397;-79
2022/12/02 12:31:52;;;;;;;38.72;16.48;;;4.60;99.90;;;;;;5075053;28;20394;-79
2022/12/02 12:34:19;;;;;;;39.50;19.15;;;4.60;99.90;;;;;;5095520;28;20066;-80
2022/12/02 12:36:46;;;;;;;47.65;19.60;;;4.60;99.90;;;;;;5072962;28;20028;-79
2022/12/02 12:39:13;;;;;;;51.50;21.73;;;4.60;99.90;;;;;;5055132;28;20047;-78
2022/12/02 12:41:40;;;;;;;38.60;17.48;;;4.60;99.90;;;;;;5080717;28;20692;-80
2022/12/02 12:44:06;;;;;;;37.17;16.23;;;4.60;99.90;;;;;;5092282;28;20047;-80
2022/12/02 12:46:32;;;;;;;40.78;17.48;;;4.60;99.90;;;;;;5114665;27;20028;-79
2022/12/02 12:48:59;;;;;;;35.25;16.83;;;4.60;99.90;;;;;;5065461;28;20035;-79
2022/12/02 12:51:26;;;;;;;38.53;16.90;;;4.60;99.90;;;;;;5093727;28;20036;-79